Gila Bend, Arizona
Current Conditions -  °F | °C
As of 3:55 PM on Friday 24 Oct 2014 (Local Time) from KGXF Reporting Station
Clear Clear  
Wind Chill: 95°   Ceiling: Unl
Heat Index: 95°   Visibility: 10mi
Dew Point: 43°   Wind: 5mph
Humidity: 16%   Direction: NA
Pressure: 29.93"   Gusts: NA
Location:  32.95°N, 112.72°W
Report Text: KGXF 242255Z VRB04KT 10SM CLR 35/06 A2993 RMK SLP121
Loading
Personal Weather Stations






























Interactive Weather Map New forecast layout! Learn more

10-Day Weather Forecast

Advertisements
Track Severe Weather on mobile